Time;durP1;ratioP1;P1;durP2;ratioP2;P2;SDS_P1;SDS_P2;PMS_P1;PMS_P2;Temp;Humidity;BMP_temperature;BMP_pressure;BME280_temperature;BME280_humidity;BME280_pressure;Samples;Min_cycle;Max_cycle;Signal;HPM_P1;HPM_P2
2023/01/11 00:00:39;;;;;;;15.80;6.60;;;;;;;-6.60;75.98;100880.45;105728;1259;70333;-79
2023/01/11 00:03:06;;;;;;;18.50;5.90;;;;;;;-6.67;76.28;100873.86;105831;1258;73506;-77
2023/01/11 00:05:39;;;;;;;21.20;6.70;;;;;;;-6.71;76.42;100874.79;105693;1259;62323;-78
2023/01/11 00:08:06;;;;;;;19.40;6.30;;;;;;;-6.73;76.40;100880.69;105753;1253;60617;-77
2023/01/11 00:10:33;;;;;;;13.50;5.60;;;;;;;-6.75;76.34;100884.69;105784;1258;74867;-80
2023/01/11 00:13:00;;;;;;;15.30;5.50;;;;;;;-6.77;76.32;100886.11;105991;1259;68759;-82
2023/01/11 00:15:27;;;;;;;22.10;5.40;;;;;;;-6.67;75.98;100899.36;105842;1259;73791;-80
2023/01/11 00:17:54;;;;;;;17.40;6.10;;;;;;;-6.61;76.12;100890.61;105603;1258;60629;-82
2023/01/11 00:20:21;;;;;;;13.50;5.60;;;;;;;-6.65;76.39;100886.22;105897;1257;61313;-79
2023/01/11 00:22:48;;;;;;;21.90;6.40;;;;;;;-6.69;76.31;100881.64;106336;1257;73038;-82
2023/01/11 00:25:15;;;;;;;10.60;5.60;;;;;;;-6.74;76.19;100874.50;106564;1257;71129;-78
2023/01/11 00:27:42;;;;;;;17.70;6.70;;;;;;;-6.78;76.54;100872.16;106195;1258;74745;-79
2023/01/11 00:30:10;;;;;;;20.20;6.30;;;;;;;-6.82;76.44;100870.53;105950;1259;60452;-77
2023/01/11 00:32:36;;;;;;;23.30;7.50;;;;;;;-6.81;76.13;100872.91;107734;1253;59126;-75
2023/01/11 00:35:04;;;;;;;17.30;5.40;;;;;;;-6.70;75.71;100879.44;108658;1253;74888;-74
2023/01/11 00:37:30;;;;;;;13.90;6.00;;;;;;;-6.72;75.52;100877.40;108398;1255;71259;-75
2023/01/11 00:39:57;;;;;;;15.80;5.90;;;;;;;-6.74;75.49;100880.18;105946;1269;74707;-77
2023/01/11 00:48:09;;;;;;;20.10;5.70;;;;;;;-6.80;75.22;100889.10;105427;1259;74852;-78
2023/01/11 00:50:37;;;;;;;13.50;6.20;;;;;;;-6.86;74.75;100885.25;105771;1258;69767;-79
2023/01/11 00:53:04;;;;;;;16.90;6.60;;;;;;;-6.90;74.95;100886.38;105642;1258;74635;-77
2023/01/11 00:55:31;;;;;;;19.20;6.20;;;;;;;-6.78;74.54;100892.52;105705;1263;64128;-78
2023/01/11 00:57:58;;;;;;;18.00;5.50;;;;;;;-6.65;74.14;100892.77;105952;1254;60998;-77
2023/01/11 01:00:25;;;;;;;19.90;6.30;;;;;;;-6.64;74.04;100891.72;107835;1257;75634;-78
2023/01/11 01:02:52;;;;;;;18.30;5.70;;;;;;;-6.65;73.79;100891.05;106355;1254;70632;-76
2023/01/11 01:05:19;;;;;;;12.40;5.70;;;;;;;-6.68;73.19;100892.64;105887;1257;72756;-79
2023/01/11 01:07:46;;;;;;;23.80;6.30;;;;;;;-6.70;73.31;100897.52;105851;1257;61119;-82
2023/01/11 01:10:14;;;;;;;14.20;5.80;;;;;;;-6.77;73.26;100897.12;105725;1261;60760;-78
2023/01/11 01:15:26;;;;;;;17.20;6.00;;;;;;;-6.84;72.80;100910.02;105897;1259;72726;-77
2023/01/11 01:17:54;;;;;;;16.50;5.20;;;;;;;-6.86;72.77;100909.02;105673;1259;74502;-78
2023/01/11 01:20:22;;;;;;;19.70;5.10;;;;;;;-6.76;72.51;100907.96;105777;1256;60752;-78
2023/01/11 01:22:49;;;;;;;19.30;5.70;;;;;;;-6.68;72.34;100908.86;105679;1257;62277;-82
2023/01/11 01:25:16;;;;;;;15.60;5.30;;;;;;;-6.73;72.16;100915.84;106067;1260;75913;-81
2023/01/11 01:27:43;;;;;;;23.60;6.60;;;;;;;-6.81;72.28;100912.20;105800;1257;72434;-79
2023/01/11 01:30:11;;;;;;;13.50;6.40;;;;;;;-6.87;72.33;100908.20;105947;1260;74772;-81
2023/01/11 01:32:38;;;;;;;12.40;5.50;;;;;;;-6.92;72.39;100903.61;106649;1257;61180;-80
2023/01/11 01:35:05;;;;;;;17.20;5.40;;;;;;;-6.96;72.37;100914.19;107961;1254;61811;-80
2023/01/11 01:37:33;;;;;;;18.00;6.10;;;;;;;-7.01;72.43;100896.72;107480;1260;74781;-80
2023/01/11 01:39:59;;;;;;;22.30;6.10;;;;;;;-7.04;72.70;100905.05;109307;1254;71676;-79
2023/01/11 01:42:27;;;;;;;12.00;5.20;;;;;;;-6.98;72.60;100906.81;108386;1254;73663;-81
2023/01/11 01:44:59;;;;;;;18.20;4.90;;;;;;;-6.85;72.32;100908.14;106907;1255;60444;-80
2023/01/11 01:47:31;;;;;;;20.70;6.40;;;;;;;-6.86;72.23;100901.79;106676;1253;61439;-79
2023/01/11 01:50:01;;;;;;;14.70;5.20;;;;;;;-6.90;72.40;100902.21;107501;1259;75673;-80
2023/01/11 01:52:28;;;;;;;20.40;5.20;;;;;;;-6.94;72.56;100909.52;107242;1254;69015;-79
2023/01/11 01:54:58;;;;;;;20.50;6.60;;;;;;;-7.02;72.32;100899.32;106517;1259;73620;-80
2023/01/11 01:57:26;;;;;;;14.10;5.50;;;;;;;-7.08;72.03;100908.39;106259;1255;62235;-79
2023/01/11 01:59:54;;;;;;;12.00;5.00;;;;;;;-7.16;72.54;100906.80;106348;1259;62933;-79
2023/01/11 02:02:23;;;;;;;15.30;5.70;;;;;;;-7.18;72.46;100910.30;107474;1254;75186;-80
2023/01/11 02:04:50;;;;;;;19.80;6.80;;;;;;;-7.06;72.73;100915.58;106311;1259;68400;-77
2023/01/11 02:07:21;;;;;;;20.20;5.30;;;;;;;-6.95;72.47;100915.39;106305;1256;71805;-79
2023/01/11 02:10:04;;;;;;;20.40;5.40;;;;;;;-6.89;72.49;100917.87;105938;1259;61906;-79
2023/01/11 02:12:38;;;;;;;15.80;4.80;;;;;;;-6.93;72.20;100915.01;106190;1259;62229;-79
2023/01/11 02:15:07;;;;;;;16.30;6.20;;;;;;;-6.98;72.33;100918.89;106479;1255;73836;-76
2023/01/11 02:17:34;;;;;;;10.30;5.30;;;;;;;-7.03;72.22;100917.27;106127;1263;69594;-76
2023/01/11 02:20:11;;;;;;;17.10;5.60;;;;;;;-7.07;72.43;100921.81;106567;1254;74974;-84
2023/01/11 02:22:51;;;;;;;14.40;5.30;;;;;;;-7.12;72.41;100928.09;108276;1253;61781;-83
2023/01/11 02:25:39;;;;;;;14.20;5.40;;;;;;;-7.13;72.55;100931.89;107697;1252;62353;-85
2023/01/11 02:28:15;;;;;;;12.70;5.20;;;;;;;-7.15;72.60;100935.03;107611;1254;74641;-83
2023/01/11 02:30:57;;;;;;;16.10;6.00;;;;;;;-7.17;72.24;100932.14;108330;1254;71690;-84
2023/01/11 02:33:35;;;;;;;19.60;5.80;;;;;;;-7.01;72.09;100921.87;109078;1253;73719;-82
2023/01/11 02:46:22;;;;;;;17.50;5.50;;;;;;;-6.97;71.66;100911.28;94400;1264;70112;-84
2023/01/11 02:48:58;;;;;;;14.30;5.10;;;;;;;-7.05;72.17;100922.98;105744;1270;74882;-82
2023/01/11 02:52:08;;;;;;;16.20;5.70;;;;;;;-7.18;71.97;100915.13;105888;1271;62006;-84
2023/01/11 02:54:35;;;;;;;20.00;6.50;;;;;;;-7.32;72.10;100914.48;105636;1269;61165;-82
2023/01/11 02:57:02;;;;;;;15.10;5.70;;;;;;;-7.38;72.48;100919.59;107958;1270;74606;-81
2023/01/11 02:59:30;;;;;;;10.30;4.00;;;;;;;-7.32;72.50;100922.76;106844;1279;69178;-81
2023/01/11 03:01:58;;;;;;;16.40;5.20;;;;;;;-7.14;72.30;100912.45;105287;1271;72995;-80
2023/01/11 03:04:30;;;;;;;22.00;4.90;;;;;;;-7.04;72.24;100915.03;105202;1271;62459;-82
2023/01/11 03:07:10;;;;;;;12.00;5.20;;;;;;;-7.02;72.34;100915.34;105232;1277;62737;-81
2023/01/11 03:09:44;;;;;;;12.60;5.50;;;;;;;-7.09;72.23;100928.21;104968;1271;74924;-81
2023/01/11 03:15:54;;;;;;;19.10;5.50;;;;;;;-7.27;71.90;100925.77;106229;1270;74685;-83
2023/01/11 03:18:29;;;;;;;15.60;5.20;;;;;;;-7.37;71.81;100938.85;107338;1270;60651;-85
2023/01/11 03:21:25;;;;;;;11.40;4.90;;;;;;;-7.43;71.57;100943.26;106230;1271;61148;-83
2023/01/11 03:24:10;;;;;;;17.70;6.20;;;;;;;-7.53;71.47;100947.19;105092;1271;76094;-83
2023/01/11 03:26:48;;;;;;;16.80;6.70;;;;;;;-7.50;71.11;100948.17;104948;1271;71701;-83
2023/01/11 03:29:19;;;;;;;19.00;5.00;;;;;;;-7.35;71.52;100962.05;105483;1271;73848;-85
2023/01/11 03:32:11;;;;;;;21.80;5.40;;;;;;;-7.28;70.83;100964.70;106002;1271;63229;-83
2023/01/11 03:34:50;;;;;;;9.40;5.30;;;;;;;-7.27;70.56;100966.91;104784;1272;61361;-86
2023/01/11 03:37:25;;;;;;;11.20;5.00;;;;;;;-7.32;70.79;100971.81;105693;1271;76156;-88
2023/01/11 03:40:02;;;;;;;15.10;5.10;;;;;;;-7.38;70.50;100961.58;105341;1271;72902;-88
2023/01/11 03:42:32;;;;;;;18.10;7.10;;;;;;;-7.46;70.33;100964.29;105940;1271;72968;-84
2023/01/11 03:44:59;;;;;;;12.90;5.70;;;;;;;-7.53;70.27;100962.50;106604;1271;60452;-88
2023/01/11 03:47:28;;;;;;;12.90;5.30;;;;;;;-7.59;70.37;100963.28;105837;1272;61302;-81
2023/01/11 03:50:06;;;;;;;21.60;5.90;;;;;;;-7.64;70.49;100971.27;105355;1271;76135;-78
2023/01/11 03:52:35;;;;;;;10.80;4.40;;;;;;;-7.67;70.40;100968.75;107420;1271;72963;-76
2023/01/11 03:55:03;;;;;;;13.70;4.70;;;;;;;-7.59;70.29;100967.23;106615;1271;74766;-79
2023/01/11 03:57:32;;;;;;;13.90;5.30;;;;;;;-7.48;70.14;100967.59;106471;1276;62153;-80
2023/01/11 03:59:59;;;;;;;10.20;4.90;;;;;;;-7.40;70.04;100973.66;106067;1270;61124;-81
2023/01/11 04:02:27;;;;;;;13.40;5.40;;;;;;;-7.37;69.91;100972.42;106901;1271;75139;-79
2023/01/11 04:04:54;;;;;;;15.50;5.10;;;;;;;-7.41;69.75;100968.51;107869;1273;71389;-81
2023/01/11 04:07:21;;;;;;;10.50;5.10;;;;;;;-7.45;69.86;100960.67;105498;1271;71274;-79
2023/01/11 04:09:48;;;;;;;9.80;4.60;;;;;;;-7.49;69.66;100965.52;104800;1271;61456;-74
2023/01/11 04:12:15;;;;;;;9.90;5.50;;;;;;;-7.56;69.49;100966.52;104885;1271;61159;-79
2023/01/11 04:14:44;;;;;;;12.80;5.40;;;;;;;-7.63;69.64;100960.08;105068;1277;75519;-77
2023/01/11 04:17:11;;;;;;;19.00;6.10;;;;;;;-7.65;69.96;100962.17;104233;1278;71467;-74
2023/01/11 04:19:38;;;;;;;15.10;5.80;;;;;;;-7.66;69.65;100967.02;104390;1274;73580;-77
2023/01/11 04:22:06;;;;;;;13.90;4.90;;;;;;;-7.58;69.43;100971.53;104603;1274;62081;-78
2023/01/11 04:24:33;;;;;;;14.60;4.90;;;;;;;-7.54;69.16;100971.12;104250;1279;61360;-77
2023/01/11 04:27:00;;;;;;;21.00;5.30;;;;;;;-7.54;69.11;100969.40;104436;1272;74649;-76
2023/01/11 04:29:28;;;;;;;10.90;4.70;;;;;;;-7.58;69.30;100967.57;104260;1271;72377;-75
2023/01/11 04:31:55;;;;;;;12.90;5.30;;;;;;;-7.66;69.06;100972.52;104565;1275;72949;-77
2023/01/11 04:34:22;;;;;;;14.40;6.70;;;;;;;-7.73;69.24;100977.59;104327;1279;60533;-75
2023/01/11 04:36:49;;;;;;;14.00;5.20;;;;;;;-7.79;69.30;100991.96;104838;1272;61209;-80
2023/01/11 04:39:16;;;;;;;22.10;5.90;;;;;;;-7.85;69.39;100991.53;104953;1271;74351;-76
2023/01/11 04:44:28;;;;;;;10.80;4.90;;;;;;;-7.93;69.56;100991.30;104892;1274;72452;-76
2023/01/11 04:46:55;;;;;;;15.20;4.80;;;;;;;-7.84;69.50;100995.80;104501;1271;63969;-76
2023/01/11 04:49:22;;;;;;;12.70;5.30;;;;;;;-7.72;69.47;100989.27;104553;1276;62315;-79
2023/01/11 04:51:49;;;;;;;12.70;5.20;;;;;;;-7.65;69.66;100988.84;104667;1276;75683;-76
2023/01/11 04:54:16;;;;;;;9.30;5.40;;;;;;;-7.63;69.52;100990.70;104599;1277;72294;-76
2023/01/11 04:56:43;;;;;;;14.30;5.70;;;;;;;-7.67;69.82;100995.23;104633;1277;74725;-74
2023/01/11 04:59:10;;;;;;;14.10;6.20;;;;;;;-7.70;69.71;101003.72;105427;1271;61756;-75
2023/01/11 05:01:37;;;;;;;15.80;5.80;;;;;;;-7.73;69.81;101007.18;106354;1274;61305;-78
2023/01/11 05:04:04;;;;;;;15.10;6.30;;;;;;;-7.75;69.64;101003.77;106243;1272;76016;-74
2023/01/11 05:06:30;;;;;;;12.90;5.40;;;;;;;-7.79;69.79;101002.78;104432;1273;72389;-79
2023/01/11 05:08:59;;;;;;;12.80;5.30;;;;;;;-7.86;69.90;101003.23;104614;1271;72477;-74
2023/01/11 05:11:26;;;;;;;10.60;4.80;;;;;;;-7.86;69.70;101003.08;104624;1276;60752;-79
2023/01/11 05:13:52;;;;;;;18.40;5.80;;;;;;;-7.74;69.58;101003.23;104501;1277;60545;-80
2023/01/11 05:16:22;;;;;;;11.00;5.30;;;;;;;-7.64;69.99;100996.23;104649;1277;74765;-81
2023/01/11 05:18:51;;;;;;;11.70;5.70;;;;;;;-7.59;69.90;100995.46;104726;1271;72138;-82
2023/01/11 05:21:21;;;;;;;13.50;5.50;;;;;;;-7.61;70.14;100994.27;105161;1271;72742;-81
2023/01/11 05:23:49;;;;;;;18.50;6.20;;;;;;;-7.65;70.15;101000.70;105650;1272;60452;-81
2023/01/11 05:26:17;;;;;;;15.30;6.50;;;;;;;-7.67;69.83;101008.13;105396;1271;62237;-76
2023/01/11 05:28:45;;;;;;;9.60;4.60;;;;;;;-7.74;69.79;101005.30;104588;1273;75182;-73
2023/01/11 05:31:12;;;;;;;8.90;5.10;;;;;;;-7.79;69.83;101013.12;104677;1276;70538;-77
2023/01/11 05:33:39;;;;;;;11.10;6.20;;;;;;;-7.87;69.98;101016.84;104519;1277;72204;-74
2023/01/11 05:36:12;;;;;;;19.60;7.70;;;;;;;-7.87;70.08;101015.97;105280;1273;63977;-77
2023/01/11 05:38:39;;;;;;;11.10;5.40;;;;;;;-7.75;69.99;101017.88;104992;1271;62319;-81
2023/01/11 05:41:07;;;;;;;19.30;6.80;;;;;;;-7.66;70.10;101022.06;105319;1271;74967;-83
2023/01/11 05:46:22;;;;;;;12.60;5.80;;;;;;;-7.65;69.90;101034.09;104256;1282;74774;-77
2023/01/11 05:48:49;;;;;;;11.30;5.90;;;;;;;-7.75;69.63;101032.67;104604;1274;60515;-77
2023/01/11 05:51:16;;;;;;;16.60;6.00;;;;;;;-7.86;69.46;101023.36;104621;1271;60490;-83
2023/01/11 05:53:43;;;;;;;13.60;7.10;;;;;;;-7.94;69.83;101026.89;105529;1277;75921;-77
2023/01/11 05:56:10;;;;;;;14.60;5.80;;;;;;;-7.98;69.85;101025.23;104468;1276;71055;-79
2023/01/11 05:58:37;;;;;;;14.30;6.30;;;;;;;-8.00;69.53;101027.16;104847;1276;72608;-81
2023/01/11 06:01:04;;;;;;;14.00;5.50;;;;;;;-7.96;69.54;101016.78;104920;1277;64262;-80
2023/01/11 06:03:31;;;;;;;12.20;5.90;;;;;;;-7.84;69.57;101020.23;107271;1273;60448;-80
2023/01/11 06:05:58;;;;;;;11.20;5.20;;;;;;;-7.76;69.55;101025.27;107454;1270;74762;-79
2023/01/11 06:08:25;;;;;;;13.90;5.80;;;;;;;-7.69;69.62;101025.71;107512;1271;70832;-79
2023/01/11 06:10:54;;;;;;;19.70;5.50;;;;;;;-7.74;69.72;101025.95;105977;1275;73340;-80
2023/01/11 06:13:28;;;;;;;11.50;5.40;;;;;;;-7.80;69.19;101033.42;105094;1272;60558;-84
2023/01/11 06:16:01;;;;;;;13.20;5.60;;;;;;;-7.89;69.12;101043.69;104675;1273;194612;-80
2023/01/11 06:18:30;;;;;;;14.90;6.00;;;;;;;-7.97;69.38;101039.65;105021;1276;73561;-80
2023/01/11 06:21:45;;;;;;;22.20;6.60;;;;;;;-8.01;69.12;101031.11;102622;1295;599964;-82
2023/01/11 06:24:12;;;;;;;13.40;6.10;;;;;;;-8.03;69.24;101028.05;104807;1274;64258;-79
2023/01/11 06:26:39;;;;;;;14.00;5.70;;;;;;;-7.89;69.29;101027.35;105039;1267;61132;-76
2023/01/11 06:29:06;;;;;;;20.30;6.50;;;;;;;-7.75;69.24;101020.79;104902;1266;72906;-78
2023/01/11 06:31:33;;;;;;;14.30;6.10;;;;;;;-7.66;69.11;101022.58;104882;1273;72906;-77
2023/01/11 06:34:01;;;;;;;14.10;5.70;;;;;;;-7.65;68.78;101024.45;104881;1273;72516;-79
2023/01/11 06:36:28;;;;;;;14.50;5.80;;;;;;;-7.74;68.66;101023.73;105552;1258;175933;-78
2023/01/11 06:38:55;;;;;;;11.00;5.60;;;;;;;-7.89;68.38;101022.02;105709;1262;60857;-78
2023/01/11 06:41:22;;;;;;;17.20;6.40;;;;;;;-8.04;68.30;101027.87;105509;1261;74021;-78
2023/01/11 06:43:49;;;;;;;11.90;5.80;;;;;;;-8.13;68.80;101033.15;105671;1258;71024;-80
2023/01/11 06:46:17;;;;;;;15.80;6.20;;;;;;;-8.13;69.27;101035.04;105658;1257;73011;-79
2023/01/11 06:48:44;;;;;;;16.30;6.80;;;;;;;-7.98;69.39;101044.14;105631;1257;63089;-77
2023/01/11 06:51:13;;;;;;;12.40;6.40;;;;;;;-7.79;69.09;101048.03;106371;1258;60596;-75
2023/01/11 06:53:40;;;;;;;14.20;5.80;;;;;;;-7.65;69.09;101042.17;107834;1257;73980;-78
2023/01/11 06:56:10;;;;;;;16.60;6.50;;;;;;;-7.62;69.16;101044.36;106714;1261;71175;-78
2023/01/11 06:58:37;;;;;;;14.30;6.10;;;;;;;-7.63;69.12;101047.32;105582;1260;74777;-78
2023/01/11 07:01:04;;;;;;;13.30;5.70;;;;;;;-7.69;68.82;101045.33;105619;1257;59980;-79
2023/01/11 07:03:31;;;;;;;17.30;7.50;;;;;;;-7.78;68.33;101043.89;105438;1257;59926;-78
2023/01/11 07:05:58;;;;;;;19.20;7.30;;;;;;;-7.83;68.38;101042.92;105570;1257;73949;-74
2023/01/11 07:08:25;;;;;;;19.70;7.50;;;;;;;-7.91;68.17;101035.29;105734;1258;71107;-77
2023/01/11 07:10:52;;;;;;;21.80;6.90;;;;;;;-7.92;68.28;101041.48;105396;1259;73319;-76
2023/01/11 07:13:19;;;;;;;13.10;6.60;;;;;;;-7.80;68.26;101039.10;106475;1257;60687;-77
2023/01/11 07:15:52;;;;;;;13.20;6.00;;;;;;;-7.67;68.28;101032.73;107088;1260;60504;-76
2023/01/11 07:18:20;;;;;;;14.00;6.10;;;;;;;-7.54;68.20;101036.86;106078;1260;75343;-76
2023/01/11 07:20:47;;;;;;;17.80;6.30;;;;;;;-7.47;68.37;101035.89;105624;1261;70870;-79
2023/01/11 07:23:14;;;;;;;14.40;6.40;;;;;;;-7.43;68.30;101030.16;105756;1261;75005;-79
2023/01/11 07:25:40;;;;;;;16.70;6.70;;;;;;;-7.39;68.24;101027.70;105928;1261;59717;-78
2023/01/11 07:28:08;;;;;;;14.40;6.80;;;;;;;-7.38;67.76;101028.54;107201;1256;61421;-79
2023/01/11 07:30:37;;;;;;;14.00;6.30;;;;;;;-7.35;68.06;101041.23;106531;1254;73946;-76
2023/01/11 07:33:22;;;;;;;11.60;6.70;;;;;;;-7.23;67.85;101037.80;105964;1260;72335;-76
2023/01/11 07:35:49;;;;;;;19.30;7.10;;;;;;;-7.16;67.52;101044.55;105812;1261;73668;-80
2023/01/11 07:38:16;;;;;;;15.60;7.30;;;;;;;-7.17;67.25;101044.91;106162;1254;60261;-78
2023/01/11 07:40:43;;;;;;;16.60;6.10;;;;;;;-7.18;66.95;101048.39;106894;1254;60025;-80
2023/01/11 07:43:13;;;;;;;14.70;6.90;;;;;;;-7.05;67.10;101047.66;105803;1254;75074;-78
2023/01/11 07:45:42;;;;;;;15.60;7.60;;;;;;;-6.86;66.66;101059.59;105888;1254;72116;-79
2023/01/11 07:48:12;;;;;;;15.50;7.10;;;;;;;-6.73;66.85;101054.88;105985;1254;74947;-76
2023/01/11 07:50:39;;;;;;;15.70;7.50;;;;;;;-6.66;66.54;101058.55;105707;1260;59708;-76
2023/01/11 07:53:09;;;;;;;13.70;6.40;;;;;;;-6.70;65.54;101061.03;105830;1260;61212;-77
2023/01/11 07:55:38;;;;;;;13.60;6.70;;;;;;;-6.80;65.32;101057.76;105744;1258;73496;-76
2023/01/11 07:58:06;;;;;;;14.70;7.10;;;;;;;-6.84;65.85;101063.69;105370;1254;72006;-77
2023/01/11 08:00:33;;;;;;;15.00;7.50;;;;;;;-6.88;65.43;101079.77;105786;1254;71272;-78
2023/01/11 08:03:00;;;;;;;18.00;8.70;;;;;;;-7.01;64.90;101101.33;105709;1257;61741;-77
2023/01/11 08:05:28;;;;;;;19.20;7.00;;;;;;;-7.20;64.80;101096.80;105768;1254;61136;-78
2023/01/11 08:07:55;;;;;;;19.30;7.10;;;;;;;-7.32;65.40;101091.96;105588;1259;75289;-76
2023/01/11 08:10:22;;;;;;;21.30;6.50;;;;;;;-7.19;65.65;101085.58;105829;1260;72437;-76
2023/01/11 08:15:35;;;;;;;15.60;6.80;;;;;;;-7.05;65.43;101079.86;105857;1254;60590;-76
2023/01/11 08:18:03;;;;;;;26.60;8.90;;;;;;;-7.02;65.49;101063.27;105688;1254;60966;-76
2023/01/11 08:20:30;;;;;;;19.40;8.10;;;;;;;-6.99;65.50;101069.95;105854;1254;73273;-77
2023/01/11 08:23:01;;;;;;;13.30;7.00;;;;;;;-6.89;65.59;101080.48;106111;1257;72559;-77
2023/01/11 08:25:27;;;;;;;14.10;7.80;;;;;;;-6.83;65.33;101086.92;105667;1259;73382;-77
2023/01/11 08:27:55;;;;;;;11.90;6.80;;;;;;;-6.86;64.89;101082.50;105777;1258;59601;-75
2023/01/11 08:30:21;;;;;;;11.20;7.20;;;;;;;-6.93;64.69;101074.52;105433;1259;62221;-76
2023/01/11 08:32:48;;;;;;;18.40;7.70;;;;;;;-7.04;64.43;101063.48;105727;1254;75206;-78
2023/01/11 08:35:17;;;;;;;13.40;6.80;;;;;;;-7.21;64.34;101063.40;105488;1263;71555;-76
2023/01/11 08:37:44;;;;;;;17.80;6.60;;;;;;;-7.23;64.80;101055.52;105994;1260;74535;-74
2023/01/11 08:40:12;;;;;;;12.60;6.20;;;;;;;-7.12;65.12;101057.05;105804;1258;63477;-76
2023/01/11 08:42:39;;;;;;;20.40;6.90;;;;;;;-7.01;65.09;101046.38;105835;1260;61326;-78
2023/01/11 08:45:09;;;;;;;15.40;7.60;;;;;;;-7.00;65.09;101044.31;105809;1259;74987;-77
2023/01/11 08:47:36;;;;;;;16.10;7.00;;;;;;;-7.03;65.28;101052.96;106184;1254;72202;-82
2023/01/11 08:50:04;;;;;;;13.80;7.10;;;;;;;-7.03;64.78;101057.11;107670;1259;73756;-79
2023/01/11 08:52:31;;;;;;;14.00;6.10;;;;;;;-7.12;64.60;101052.23;107476;1260;59561;-82
2023/01/11 08:54:58;;;;;;;21.30;7.40;;;;;;;-7.22;64.84;101062.73;107839;1254;60944;-76
2023/01/11 08:57:25;;;;;;;17.90;8.20;;;;;;;-7.23;65.20;101064.30;106065;1258;72196;-79
2023/01/11 08:59:53;;;;;;;12.90;6.20;;;;;;;-7.25;64.88;101057.25;105784;1261;71591;-79
2023/01/11 09:02:20;;;;;;;19.10;7.20;;;;;;;-7.16;65.39;101061.27;105886;1254;74492;-82
2023/01/11 09:04:47;;;;;;;14.70;7.50;;;;;;;-6.97;65.10;101069.93;105741;1259;61963;-82
2023/01/11 09:07:14;;;;;;;18.60;7.70;;;;;;;-6.75;65.02;101061.13;105834;1259;61406;-79
2023/01/11 09:09:41;;;;;;;16.00;6.40;;;;;;;-6.58;65.23;101050.15;105923;1254;75383;-79
2023/01/11 09:12:08;;;;;;;19.90;8.80;;;;;;;-6.46;64.52;101060.95;105759;1257;69653;-79
2023/01/11 09:14:35;;;;;;;17.90;7.00;;;;;;;-6.41;63.89;101047.59;105705;1254;73623;-79
2023/01/11 09:17:02;;;;;;;15.10;7.20;;;;;;;-6.35;63.62;101043.52;105790;1254;59534;-78
2023/01/11 09:19:29;;;;;;;13.70;7.50;;;;;;;-6.30;63.64;101044.13;105822;1254;61153;-77
2023/01/11 09:21:57;;;;;;;14.30;7.30;;;;;;;-6.18;63.95;101047.33;105850;1254;74842;-78
2023/01/11 09:24:24;;;;;;;13.90;7.10;;;;;;;-6.00;64.04;101052.14;105828;1260;69985;-77
2023/01/11 09:26:52;;;;;;;20.20;9.30;;;;;;;-5.82;63.49;101055.88;106125;1254;73761;-79
2023/01/11 09:29:19;;;;;;;23.50;8.50;;;;;;;-5.75;62.41;101041.92;106442;1257;62632;-80
2023/01/11 09:31:46;;;;;;;16.70;8.10;;;;;;;-5.72;62.02;101043.10;106239;1257;61165;-79
2023/01/11 09:34:13;;;;;;;14.80;8.10;;;;;;;-5.88;61.85;101050.52;105746;1261;75387;-78
2023/01/11 09:36:40;;;;;;;17.50;7.40;;;;;;;-6.10;61.99;101049.75;105797;1254;72806;-77
2023/01/11 09:39:09;;;;;;;15.70;7.80;;;;;;;-6.38;62.41;101055.46;105553;1261;73461;-77
2023/01/11 09:41:45;;;;;;;13.00;6.80;;;;;;;-6.59;62.71;101049.30;105740;1258;63507;-77
2023/01/11 09:44:17;;;;;;;14.90;6.90;;;;;;;-6.56;63.33;101042.35;105736;1259;61770;-77
2023/01/11 09:46:49;;;;;;;17.10;7.50;;;;;;;-6.46;63.67;101035.96;105676;1254;72832;-77
2023/01/11 09:49:19;;;;;;;18.60;7.40;;;;;;;-6.43;63.79;101026.26;105461;1260;71314;-75
2023/01/11 09:51:47;;;;;;;18.40;8.10;;;;;;;-6.42;63.92;101024.85;105909;1254;73381;-76
2023/01/11 09:54:17;;;;;;;18.10;8.60;;;;;;;-6.37;64.04;101015.80;105600;1254;61322;-75
2023/01/11 09:56:53;;;;;;;16.60;8.60;;;;;;;-6.34;63.91;101005.40;105505;1254;60817;-77
2023/01/11 09:59:28;;;;;;;18.80;8.60;;;;;;;-6.28;64.03;101013.90;105838;1258;74356;-79
2023/01/11 10:02:06;;;;;;;17.90;8.30;;;;;;;-6.23;63.68;101011.73;106025;1254;71103;-78
2023/01/11 10:04:55;;;;;;;18.60;9.10;;;;;;;-6.23;63.64;101011.40;105734;1261;74894;-79
2023/01/11 10:07:42;;;;;;;15.00;7.90;;;;;;;-6.20;63.47;101005.46;106051;1261;61334;-80
2023/01/11 10:10:19;;;;;;;15.30;8.50;;;;;;;-6.20;63.39;101001.48;106243;1253;61246;-77
2023/01/11 10:13:24;;;;;;;20.00;9.00;;;;;;;-6.22;63.35;100987.58;106472;1254;73389;-77
2023/01/11 10:16:31;;;;;;;17.20;8.10;;;;;;;-6.20;63.78;100980.45;106540;1254;70967;-77
2023/01/11 10:19:24;;;;;;;26.50;9.60;;;;;;;-6.14;63.74;100983.28;106535;1254;72281;-75
2023/01/11 10:22:30;;;;;;;17.80;8.70;;;;;;;-5.98;63.60;100975.33;105975;1258;62532;-77
2023/01/11 10:25:00;;;;;;;20.90;8.00;;;;;;;-5.73;63.81;100968.39;105941;1255;61292;-77
2023/01/11 10:27:39;;;;;;;14.20;7.70;;;;;;;-5.57;63.45;100964.20;105647;1253;71664;-75
2023/01/11 10:30:48;;;;;;;16.70;8.80;;;;;;;-5.51;63.18;100963.90;105990;1254;68943;-76
2023/01/11 10:33:28;;;;;;;21.40;9.40;;;;;;;-5.51;62.77;100968.41;105817;1254;74930;-76
2023/01/11 10:39:49;;;;;;;18.30;9.00;;;;;;;-5.41;62.22;100965.75;106099;1254;60427;-77
2023/01/11 10:42:25;;;;;;;19.60;9.30;;;;;;;-5.46;61.42;100958.95;107561;1254;74727;-77
2023/01/11 10:45:11;;;;;;;14.70;9.40;;;;;;;-5.47;61.67;100962.44;106169;1254;71413;-77
2023/01/11 10:47:54;;;;;;;17.90;9.00;;;;;;;-5.41;61.57;100959.70;106702;1254;73792;-81
2023/01/11 10:50:30;;;;;;;18.20;9.50;;;;;;;-5.34;61.49;100951.59;106533;1261;60553;-79
2023/01/11 10:53:05;;;;;;;18.50;9.30;;;;;;;-5.22;61.87;100950.27;105733;1259;62602;-76
2023/01/11 10:55:40;;;;;;;20.80;9.80;;;;;;;-5.03;62.26;100942.52;105745;1259;75868;-78
2023/01/11 10:58:52;;;;;;;19.00;9.50;;;;;;;-4.84;61.92;100941.16;105757;1254;72255;-76
2023/01/11 11:01:39;;;;;;;18.00;9.90;;;;;;;-4.76;61.33;100941.98;105771;1259;72512;-78
2023/01/11 11:04:18;;;;;;;17.40;9.60;;;;;;;-4.75;60.98;100953.20;105776;1258;62135;-80
2023/01/11 11:06:52;;;;;;;22.40;8.90;;;;;;;-4.78;61.00;100952.92;105814;1257;61725;-80
2023/01/11 11:09:45;;;;;;;18.00;9.80;;;;;;;-4.73;61.34;100946.23;105841;1254;76818;-78
2023/01/11 11:12:21;;;;;;;18.30;10.10;;;;;;;-4.65;61.33;100943.26;105843;1254;70207;-78
2023/01/11 11:15:01;;;;;;;20.50;9.40;;;;;;;-4.56;61.37;100946.81;105583;1260;73825;-77
2023/01/11 11:17:33;;;;;;;17.20;10.10;;;;;;;-4.49;60.83;100945.60;105898;1255;61197;-76
2023/01/11 11:20:13;;;;;;;21.10;9.30;;;;;;;-4.58;60.42;100948.06;105641;1254;62276;-77
2023/01/11 11:22:41;;;;;;;21.90;10.40;;;;;;;-4.64;60.60;100943.73;105753;1253;76397;-79
2023/01/11 11:25:26;;;;;;;18.80;9.80;;;;;;;-4.71;60.66;100939.77;105636;1257;72590;-78
2023/01/11 11:28:06;;;;;;;18.80;10.40;;;;;;;-4.74;60.84;100937.60;105652;1254;75001;-76
2023/01/11 11:30:44;;;;;;;19.30;8.30;;;;;;;-4.71;61.02;100937.37;105864;1254;61634;-79
2023/01/11 11:33:36;;;;;;;17.80;8.60;;;;;;;-4.68;60.78;100943.16;105901;1254;60414;-79
2023/01/11 11:36:08;;;;;;;14.70;8.90;;;;;;;-4.72;60.80;100942.56;106548;1256;76156;-81
2023/01/11 11:38:40;;;;;;;17.60;8.70;;;;;;;-4.76;60.84;100946.83;107000;1254;70544;-80
2023/01/11 11:41:12;;;;;;;19.20;9.40;;;;;;;-4.78;61.03;100942.54;107255;1254;75032;-78
2023/01/11 11:43:41;;;;;;;22.20;9.20;;;;;;;-4.79;60.85;100930.48;106930;1254;60976;-80
2023/01/11 11:46:14;;;;;;;19.90;9.30;;;;;;;-4.90;60.80;100930.10;106519;1254;61367;-80
2023/01/11 11:49:11;;;;;;;18.20;9.00;;;;;;;-5.00;60.91;100936.75;107537;1253;72249;-80
2023/01/11 11:51:39;;;;;;;20.40;8.90;;;;;;;-5.15;60.88;100934.17;106137;1258;69556;-82
2023/01/11 11:54:06;;;;;;;18.20;8.50;;;;;;;-5.29;61.23;100935.94;106219;1256;72897;-79
2023/01/11 11:56:33;;;;;;;15.90;8.50;;;;;;;-5.40;61.38;100933.78;106115;1254;61213;-79
2023/01/11 11:59:08;;;;;;;20.30;9.00;;;;;;;-5.52;61.33;100935.45;107532;1254;61419;-76
2023/01/11 12:01:38;;;;;;;17.40;8.60;;;;;;;-5.60;61.49;100947.20;107822;1254;77822;-78